Time;durP1;ratioP1;P1;durP2;ratioP2;P2;SDS_P1;SDS_P2;PMS_P1;PMS_P2;Temp;Humidity;BMP_temperature;BMP_pressure;BME280_temperature;BME280_humidity;BME280_pressure;Samples;Min_cycle;Max_cycle;Signal;HPM_P1;HPM_P2
2022/01/11 00:00:26;;;;;;;30.40;19.67;;;4.40;99.90;;;;;;5014338;28;20199;-78
2022/01/11 00:03:12;;;;;;;32.07;19.77;;;4.40;99.90;;;;;;5013775;28;20562;-79
2022/01/11 00:08:12;;;;;;;28.03;18.13;;;4.20;99.90;;;;;;5015276;28;20202;-79
2022/01/11 00:10:48;;;;;;;27.63;17.30;;;4.20;99.90;;;;;;5014828;28;20184;-79
2022/01/11 00:13:16;;;;;;;27.93;17.23;;;4.20;99.90;;;;;;5016249;28;20234;-79
2022/01/11 00:15:42;;;;;;;26.70;17.37;;;4.20;99.90;;;;;;5014843;28;20207;-79
2022/01/11 00:18:07;;;;;;;28.20;17.83;;;4.10;99.90;;;;;;5013308;28;20179;-80
2022/01/11 00:20:38;;;;;;;26.57;17.27;;;4.00;99.90;;;;;;5014956;28;20241;-79
2022/01/11 00:25:33;;;;;;;27.60;17.23;;;3.90;99.90;;;;;;5016574;28;20547;-78
2022/01/11 00:27:59;;;;;;;28.20;17.77;;;4.00;99.90;;;;;;5013461;28;20614;-77
2022/01/11 00:30:31;;;;;;;26.60;17.07;;;3.90;99.90;;;;;;5015159;28;20191;-78
2022/01/11 00:33:03;;;;;;;25.20;16.97;;;3.80;99.90;;;;;;5011953;28;20567;-78
2022/01/11 00:35:40;;;;;;;26.67;16.60;;;3.80;99.90;;;;;;5015374;28;20213;-78
2022/01/11 00:38:07;;;;;;;25.90;17.43;;;3.80;99.90;;;;;;5009735;28;20269;-78
2022/01/11 00:40:33;;;;;;;26.10;16.63;;;3.80;99.90;;;;;;5013155;28;20221;-77
2022/01/11 00:43:00;;;;;;;26.83;17.17;;;3.70;99.90;;;;;;4997344;28;20210;-78
2022/01/11 00:45:28;;;;;;;27.37;17.47;;;3.80;99.90;;;;;;5012610;28;20211;-78
2022/01/11 00:47:54;;;;;;;29.03;18.50;;;3.70;99.90;;;;;;5012698;28;20179;-78
2022/01/11 00:50:25;;;;;;;30.33;19.10;;;3.80;99.90;;;;;;5012358;28;20257;-78
2022/01/11 00:52:51;;;;;;;30.70;18.80;;;3.80;99.90;;;;;;5015311;28;20167;-78
2022/01/11 00:55:17;;;;;;;26.40;17.27;;;3.70;99.90;;;;;;5015447;28;20193;-78
2022/01/11 00:57:43;;;;;;;27.20;17.63;;;3.80;99.90;;;;;;5013804;28;20198;-77
2022/01/11 01:00:11;;;;;;;26.33;16.70;;;3.80;99.90;;;;;;5012025;28;20181;-79
2022/01/11 01:02:41;;;;;;;30.23;17.67;;;3.90;99.90;;;;;;5013751;28;20175;-79
2022/01/11 01:05:07;;;;;;;26.80;17.23;;;3.90;99.90;;;;;;5015797;28;20167;-78
2022/01/11 01:07:33;;;;;;;25.60;16.67;;;3.90;99.90;;;;;;5015659;28;20571;-76
2022/01/11 01:10:06;;;;;;;27.67;17.63;;;3.90;99.90;;;;;;5009647;28;20175;-77
2022/01/11 01:12:38;;;;;;;26.17;17.10;;;3.80;99.90;;;;;;5012356;28;20261;-77
2022/01/11 01:15:04;;;;;;;29.90;17.43;;;3.90;99.90;;;;;;5020425;28;20180;-77
2022/01/11 01:17:31;;;;;;;27.67;18.07;;;3.80;99.90;;;;;;5014688;28;20607;-78
2022/01/11 01:19:56;;;;;;;26.77;17.23;;;3.90;99.90;;;;;;5014612;28;20178;-78
2022/01/11 01:22:22;;;;;;;27.47;17.93;;;3.90;99.90;;;;;;5012368;28;20179;-78
2022/01/11 01:24:48;;;;;;;29.43;18.23;;;3.90;99.90;;;;;;5013176;28;20211;-78
2022/01/11 01:27:14;;;;;;;26.53;16.90;;;4.00;99.90;;;;;;5013629;28;20657;-78
2022/01/11 01:29:41;;;;;;;30.57;18.07;;;4.00;99.90;;;;;;5013648;28;20182;-78
2022/01/11 01:32:08;;;;;;;25.10;17.30;;;4.00;99.90;;;;;;5015802;28;20174;-78
2022/01/11 01:34:34;;;;;;;28.87;17.97;;;4.00;99.90;;;;;;5010698;28;20600;-78
2022/01/11 01:37:00;;;;;;;27.20;17.93;;;4.00;99.90;;;;;;5010345;28;20591;-78
2022/01/11 01:39:26;;;;;;;29.20;17.13;;;4.00;99.90;;;;;;5013038;28;20178;-78
2022/01/11 01:41:52;;;;;;;25.60;17.17;;;4.10;99.90;;;;;;5013315;28;20175;-78
2022/01/11 01:44:19;;;;;;;29.73;16.93;;;4.10;99.90;;;;;;5013334;28;20195;-76
2022/01/11 01:46:44;;;;;;;27.43;17.30;;;4.10;99.90;;;;;;5012814;28;20190;-77
2022/01/11 01:49:18;;;;;;;29.50;18.60;;;4.10;99.90;;;;;;5017446;28;20207;-77
2022/01/11 01:51:45;;;;;;;26.97;18.17;;;4.10;99.90;;;;;;5031414;28;20179;-77
2022/01/11 01:54:12;;;;;;;30.23;17.77;;;4.00;99.90;;;;;;5033211;28;20669;-77
2022/01/11 01:56:40;;;;;;;27.87;17.30;;;3.90;99.90;;;;;;5029894;28;20191;-77
2022/01/11 01:59:06;;;;;;;31.60;18.57;;;3.80;99.90;;;;;;5017710;28;20259;-77
2022/01/11 02:01:37;;;;;;;30.93;18.67;;;3.80;99.90;;;;;;5021981;28;20213;-77
2022/01/11 02:04:03;;;;;;;31.07;18.90;;;3.80;99.90;;;;;;5017293;28;20230;-77
2022/01/11 02:06:29;;;;;;;29.53;19.00;;;3.70;99.90;;;;;;5018533;28;20192;-77
2022/01/11 02:08:54;;;;;;;29.07;18.70;;;3.80;99.90;;;;;;5012599;28;20584;-77
2022/01/11 02:11:23;;;;;;;33.00;18.47;;;3.80;99.90;;;;;;5023335;28;20178;-76
2022/01/11 02:13:56;;;;;;;31.13;18.10;;;3.70;99.90;;;;;;5032428;28;20218;-77
2022/01/11 02:16:23;;;;;;;32.07;19.10;;;3.80;99.90;;;;;;5033257;28;20206;-77
2022/01/11 02:18:52;;;;;;;30.87;18.53;;;3.80;99.90;;;;;;5031536;28;20185;-77
2022/01/11 02:21:21;;;;;;;33.70;19.63;;;3.80;99.90;;;;;;5034277;28;20201;-77
2022/01/11 02:23:47;;;;;;;32.27;18.80;;;3.80;99.90;;;;;;5030254;28;20218;-77
2022/01/11 02:26:13;;;;;;;31.53;19.90;;;3.90;99.90;;;;;;5034565;28;20534;-77
2022/01/11 02:28:41;;;;;;;32.03;19.40;;;3.80;99.90;;;;;;5029273;28;20164;-76
2022/01/11 02:31:12;;;;;;;34.30;19.17;;;3.80;99.90;;;;;;5037588;28;20174;-76
2022/01/11 02:33:46;;;;;;;35.03;20.50;;;3.60;99.90;;;;;;5037001;28;20210;-77
2022/01/11 02:36:26;;;;;;;34.97;20.07;;;3.60;99.90;;;;;;5036667;28;20197;-77
2022/01/11 02:38:54;;;;;;;33.37;18.93;;;3.70;99.90;;;;;;5022324;28;20186;-77
2022/01/11 02:41:21;;;;;;;34.23;20.07;;;3.70;99.90;;;;;;5020049;28;20562;-77
2022/01/11 02:43:48;;;;;;;34.40;19.90;;;3.70;99.90;;;;;;5017615;28;20209;-77
2022/01/11 02:46:19;;;;;;;33.50;19.00;;;3.60;99.90;;;;;;5029030;28;20174;-77
2022/01/11 02:48:46;;;;;;;33.63;18.90;;;3.50;99.90;;;;;;5022762;28;20167;-78
2022/01/11 02:51:12;;;;;;;34.50;20.67;;;3.60;99.90;;;;;;5017352;28;20171;-77
2022/01/11 02:53:47;;;;;;;33.03;19.77;;;3.60;99.90;;;;;;5013866;28;20190;-76
2022/01/11 02:56:13;;;;;;;34.83;20.23;;;3.60;99.90;;;;;;5017010;28;20199;-78
2022/01/11 02:58:39;;;;;;;31.00;18.93;;;3.70;99.90;;;;;;5013348;28;20588;-77
2022/01/11 03:01:09;;;;;;;32.70;20.60;;;3.70;99.90;;;;;;5016328;28;20932;-77
2022/01/11 03:03:36;;;;;;;36.37;20.30;;;3.80;99.90;;;;;;5013870;28;20288;-77
2022/01/11 03:06:04;;;;;;;31.07;19.20;;;3.80;99.90;;;;;;4998914;28;20183;-77
2022/01/11 03:08:39;;;;;;;33.67;19.57;;;3.90;99.90;;;;;;5013506;28;20178;-77
2022/01/11 03:11:12;;;;;;;34.37;19.47;;;3.90;99.90;;;;;;5013913;28;20171;-77
2022/01/11 03:13:40;;;;;;;32.60;19.67;;;4.00;99.90;;;;;;5005037;28;20190;-78
2022/01/11 03:16:06;;;;;;;33.37;19.60;;;4.00;99.90;;;;;;4995767;28;20214;-77
2022/01/11 03:18:32;;;;;;;34.53;19.37;;;4.00;99.90;;;;;;4996233;28;20187;-77
2022/01/11 03:20:58;;;;;;;33.73;19.30;;;4.00;99.90;;;;;;5015107;28;20189;-77
2022/01/11 03:24:21;;;;;;;32.40;19.53;;;4.00;99.90;;;;;;5011721;28;20195;-77
2022/01/11 03:26:47;;;;;;;34.40;19.20;;;4.00;99.90;;;;;;5010632;28;20179;-77
2022/01/11 03:29:13;;;;;;;33.63;19.50;;;4.00;99.90;;;;;;5010917;28;20179;-78
2022/01/11 03:31:39;;;;;;;35.47;19.23;;;4.10;99.90;;;;;;5016155;28;20185;-77
2022/01/11 03:34:05;;;;;;;33.17;19.33;;;4.10;99.90;;;;;;5013941;28;20672;-78
2022/01/11 03:36:39;;;;;;;33.77;18.90;;;4.00;99.90;;;;;;5001934;28;20297;-77
2022/01/11 03:39:05;;;;;;;35.03;20.10;;;4.10;99.90;;;;;;5010460;28;20175;-78
2022/01/11 03:41:31;;;;;;;33.27;19.73;;;4.10;99.90;;;;;;5013217;28;20168;-78
2022/01/11 03:44:02;;;;;;;37.33;20.40;;;4.20;99.90;;;;;;5010887;28;20196;-78
2022/01/11 03:46:28;;;;;;;39.07;21.57;;;4.20;99.90;;;;;;5011020;28;20584;-78
2022/01/11 03:48:54;;;;;;;36.80;21.00;;;4.20;99.90;;;;;;5011564;28;20274;-78
2022/01/11 03:51:21;;;;;;;35.60;20.27;;;4.10;99.90;;;;;;5015343;28;20182;-79
2022/01/11 03:54:04;;;;;;;37.00;20.47;;;4.10;99.90;;;;;;5016204;28;20199;-78
2022/01/11 03:56:31;;;;;;;38.27;19.53;;;4.30;99.90;;;;;;5016759;28;20200;-78
2022/01/11 03:59:06;;;;;;;38.60;21.33;;;4.20;99.90;;;;;;5014623;28;20174;-77
2022/01/11 04:01:36;;;;;;;38.17;20.77;;;4.30;99.90;;;;;;5013033;28;20499;-77
2022/01/11 04:04:03;;;;;;;35.70;20.60;;;4.20;99.90;;;;;;5011461;28;20214;-77
2022/01/11 04:06:29;;;;;;;39.07;19.77;;;4.20;99.90;;;;;;5010629;28;20256;-77
2022/01/11 04:08:55;;;;;;;35.37;19.90;;;4.20;99.90;;;;;;5012127;28;20769;-78
2022/01/11 04:11:22;;;;;;;40.30;20.00;;;4.30;99.90;;;;;;5010072;28;20193;-77
2022/01/11 04:13:49;;;;;;;36.57;20.03;;;4.30;99.90;;;;;;5004038;28;20229;-78
2022/01/11 04:16:16;;;;;;;38.63;20.33;;;4.30;99.90;;;;;;5012707;28;20211;-77
2022/01/11 04:18:42;;;;;;;33.10;19.67;;;4.30;99.90;;;;;;5011406;28;20174;-78
2022/01/11 04:21:08;;;;;;;44.37;21.40;;;4.30;99.90;;;;;;5011546;28;20238;-78
2022/01/11 04:23:35;;;;;;;39.77;19.37;;;4.20;99.90;;;;;;5010848;28;20190;-77
2022/01/11 04:26:05;;;;;;;39.50;20.23;;;4.20;99.90;;;;;;5008676;28;20205;-78
2022/01/11 04:28:36;;;;;;;42.60;19.60;;;4.30;99.90;;;;;;5000685;28;20167;-78
2022/01/11 04:31:05;;;;;;;42.33;19.47;;;4.30;99.90;;;;;;5010682;28;20266;-77
2022/01/11 04:33:32;;;;;;;40.03;19.10;;;4.30;99.90;;;;;;5009409;28;20202;-77
2022/01/11 04:36:01;;;;;;;38.93;17.47;;;4.40;99.90;;;;;;5012572;28;20249;-77
2022/01/11 04:38:29;;;;;;;33.07;17.00;;;4.30;99.90;;;;;;5010646;28;20202;-78
2022/01/11 04:40:56;;;;;;;39.43;17.97;;;4.30;99.90;;;;;;5012768;28;20206;-77
2022/01/11 04:43:23;;;;;;;34.60;17.17;;;4.20;99.90;;;;;;5000425;28;20195;-77
2022/01/11 04:45:49;;;;;;;42.50;19.83;;;4.40;99.90;;;;;;5031851;28;20195;-77
2022/01/11 04:48:18;;;;;;;41.70;20.47;;;4.40;99.90;;;;;;5032857;28;20175;-76
2022/01/11 04:50:46;;;;;;;40.10;18.93;;;4.50;99.90;;;;;;5014230;28;20171;-77
2022/01/11 04:53:14;;;;;;;41.20;18.70;;;4.50;99.90;;;;;;5030270;28;20248;-77
2022/01/11 04:55:40;;;;;;;37.17;18.13;;;4.50;99.90;;;;;;5018902;28;20210;-77
2022/01/11 04:58:07;;;;;;;36.70;17.37;;;4.40;99.90;;;;;;5011207;28;20176;-77
2022/01/11 05:00:33;;;;;;;32.33;16.57;;;4.40;99.90;;;;;;5012002;28;20238;-77
2022/01/11 05:02:59;;;;;;;35.37;16.30;;;4.40;99.90;;;;;;5012995;28;20387;-77
2022/01/11 05:05:29;;;;;;;33.70;15.70;;;4.40;99.90;;;;;;5009608;28;20556;-77
2022/01/11 05:07:56;;;;;;;34.50;14.93;;;4.20;99.90;;;;;;4991992;28;20175;-77
2022/01/11 05:10:23;;;;;;;33.50;14.50;;;4.20;99.90;;;;;;5009384;28;20190;-77
2022/01/11 05:12:55;;;;;;;29.90;15.47;;;4.20;99.90;;;;;;5008246;28;20265;-77
2022/01/11 05:15:25;;;;;;;32.00;15.67;;;4.20;99.90;;;;;;5011079;28;20198;-78
2022/01/11 05:17:53;;;;;;;34.53;15.67;;;4.30;99.90;;;;;;5008442;28;20254;-78
2022/01/11 05:20:19;;;;;;;31.27;15.43;;;4.20;99.90;;;;;;5008277;28;20175;-77
2022/01/11 05:22:45;;;;;;;34.60;15.27;;;4.30;99.90;;;;;;5011061;28;20563;-78
2022/01/11 05:25:13;;;;;;;30.17;15.67;;;4.30;99.90;;;;;;5010331;28;20242;-77
2022/01/11 05:27:39;;;;;;;30.17;14.83;;;4.40;99.90;;;;;;5010344;28;20175;-77
2022/01/11 05:30:06;;;;;;;31.27;16.37;;;4.40;99.90;;;;;;5008798;28;20603;-77
2022/01/11 05:32:32;;;;;;;34.13;15.47;;;4.50;99.90;;;;;;5011404;28;20278;-77
2022/01/11 05:34:58;;;;;;;35.57;16.17;;;4.30;99.90;;;;;;5008837;28;20201;-77
2022/01/11 05:37:24;;;;;;;30.70;16.27;;;4.30;99.90;;;;;;5007847;28;20573;-77
2022/01/11 05:39:53;;;;;;;32.20;15.43;;;4.30;99.90;;;;;;5010769;28;20269;-77
2022/01/11 05:42:19;;;;;;;33.17;16.30;;;4.30;99.90;;;;;;4994433;28;20488;-77
2022/01/11 05:44:45;;;;;;;32.27;15.23;;;4.20;99.90;;;;;;4994011;28;20741;-77
2022/01/11 05:47:11;;;;;;;33.37;15.03;;;4.20;99.90;;;;;;5008873;28;20275;-77
2022/01/11 05:49:36;;;;;;;33.00;15.33;;;4.20;99.90;;;;;;5007985;28;20268;-77
2022/01/11 05:52:02;;;;;;;36.00;15.30;;;4.20;99.90;;;;;;5008040;28;20171;-77
2022/01/11 05:54:28;;;;;;;30.67;14.77;;;4.20;99.90;;;;;;5010964;28;20285;-76
2022/01/11 05:56:55;;;;;;;29.00;14.47;;;4.20;99.90;;;;;;5009629;28;20268;-77
2022/01/11 05:59:20;;;;;;;26.90;14.73;;;4.10;99.90;;;;;;5009625;28;20182;-77
2022/01/11 06:01:46;;;;;;;35.10;15.30;;;4.10;99.90;;;;;;5007372;28;20174;-78
2022/01/11 06:04:12;;;;;;;28.03;14.03;;;4.10;99.90;;;;;;5008288;28;20541;-77
2022/01/11 06:06:38;;;;;;;27.70;13.90;;;4.00;99.90;;;;;;4995692;28;20166;-77
2022/01/11 06:09:04;;;;;;;27.20;13.73;;;4.00;99.90;;;;;;5009579;28;20187;-77
2022/01/11 06:11:31;;;;;;;28.40;14.20;;;4.00;99.90;;;;;;5002732;28;20187;-77
2022/01/11 06:13:57;;;;;;;31.17;14.93;;;4.00;99.90;;;;;;4979260;28;20226;-77
2022/01/11 06:16:23;;;;;;;27.63;15.30;;;4.00;99.90;;;;;;5010384;28;20265;-77
2022/01/11 06:18:53;;;;;;;29.50;14.87;;;4.00;99.90;;;;;;5010342;28;20193;-77
2022/01/11 06:21:24;;;;;;;30.93;14.27;;;4.10;99.90;;;;;;5007756;28;20168;-77
2022/01/11 06:23:50;;;;;;;34.10;13.97;;;4.00;99.90;;;;;;5010445;28;20594;-78
2022/01/11 06:26:17;;;;;;;31.30;14.00;;;4.00;99.90;;;;;;4993171;28;20228;-78
2022/01/11 06:28:47;;;;;;;30.07;13.87;;;4.10;99.90;;;;;;5007553;28;20231;-78
2022/01/11 06:31:13;;;;;;;30.97;14.23;;;4.00;99.90;;;;;;5008278;28;20184;-78
2022/01/11 06:33:39;;;;;;;28.77;14.00;;;4.00;99.90;;;;;;5008281;28;20191;-77
2022/01/11 06:36:10;;;;;;;29.33;13.80;;;4.00;99.90;;;;;;5011907;28;20312;-77
2022/01/11 06:38:46;;;;;;;30.70;13.97;;;4.10;99.90;;;;;;5011876;28;20538;-77
2022/01/11 06:41:16;;;;;;;27.80;14.47;;;4.10;99.90;;;;;;5012189;28;20221;-78
2022/01/11 06:43:43;;;;;;;30.37;14.93;;;3.90;99.90;;;;;;5015918;28;20217;-76
2022/01/11 06:46:09;;;;;;;26.57;13.63;;;4.00;99.90;;;;;;5005754;28;20203;-77
2022/01/11 06:48:36;;;;;;;29.57;14.50;;;3.90;99.90;;;;;;5023521;28;20327;-76
2022/01/11 06:51:02;;;;;;;34.73;14.97;;;3.90;99.90;;;;;;5012479;28;20190;-77
2022/01/11 06:53:37;;;;;;;29.60;14.27;;;3.90;99.90;;;;;;5011861;28;20229;-77
2022/01/11 06:56:03;;;;;;;32.87;14.70;;;3.90;99.90;;;;;;5011505;28;20211;-78
2022/01/11 06:58:31;;;;;;;29.93;14.17;;;3.90;99.90;;;;;;5014850;28;20194;-77
2022/01/11 07:00:57;;;;;;;32.27;15.00;;;3.80;99.90;;;;;;5016561;28;20178;-77
2022/01/11 07:03:22;;;;;;;29.37;14.13;;;3.80;99.90;;;;;;5013931;28;20225;-77
2022/01/11 07:05:59;;;;;;;32.50;15.73;;;3.80;99.90;;;;;;5004780;28;20186;-78
2022/01/11 07:08:24;;;;;;;33.60;16.33;;;3.80;99.90;;;;;;4992989;28;20180;-78
2022/01/11 07:10:52;;;;;;;32.37;15.17;;;3.80;99.90;;;;;;5012807;28;20183;-77
2022/01/11 07:13:19;;;;;;;33.10;15.73;;;3.80;99.90;;;;;;5013494;28;20306;-78
2022/01/11 07:15:44;;;;;;;36.30;16.83;;;3.80;99.90;;;;;;5010209;28;20607;-78
2022/01/11 07:18:13;;;;;;;32.33;15.90;;;3.80;99.90;;;;;;5011039;28;20638;-77
2022/01/11 07:20:43;;;;;;;37.57;16.57;;;3.90;99.90;;;;;;5012815;28;20171;-79
2022/01/11 07:23:12;;;;;;;32.23;16.10;;;3.80;99.90;;;;;;5015021;28;20206;-78
2022/01/11 07:25:39;;;;;;;37.90;16.33;;;4.00;99.90;;;;;;5015144;28;20186;-78
2022/01/11 07:28:06;;;;;;;35.07;15.63;;;4.00;99.90;;;;;;4999336;28;20177;-78
2022/01/11 07:30:33;;;;;;;37.50;16.40;;;4.00;99.90;;;;;;5013661;28;20245;-78
2022/01/11 07:32:59;;;;;;;38.77;16.20;;;4.00;99.90;;;;;;5013927;28;20199;-78
2022/01/11 07:35:25;;;;;;;35.77;16.97;;;4.00;99.90;;;;;;5013544;28;20178;-77
2022/01/11 07:37:54;;;;;;;36.60;17.67;;;4.00;99.90;;;;;;5009318;28;20180;-78
2022/01/11 07:40:20;;;;;;;34.53;16.63;;;4.10;99.90;;;;;;5009499;28;20262;-78
2022/01/11 07:42:51;;;;;;;34.97;16.83;;;4.00;99.90;;;;;;5013561;28;20175;-77
2022/01/11 07:45:34;;;;;;;39.07;18.37;;;4.00;99.90;;;;;;5009886;28;20164;-78
2022/01/11 07:48:02;;;;;;;34.33;17.93;;;4.00;99.90;;;;;;5014543;28;20542;-78
2022/01/11 07:50:32;;;;;;;41.87;19.03;;;4.00;99.90;;;;;;5015206;28;20162;-78
2022/01/11 07:53:08;;;;;;;35.37;17.63;;;4.10;99.90;;;;;;5012858;28;20190;-78
2022/01/11 07:55:38;;;;;;;33.37;17.10;;;4.00;99.90;;;;;;5012359;28;20658;-78
2022/01/11 07:58:05;;;;;;;33.70;16.87;;;4.00;99.90;;;;;;5008894;28;20178;-77
2022/01/11 08:00:31;;;;;;;35.17;18.07;;;3.90;99.90;;;;;;5013035;28;20261;-77
2022/01/11 08:02:58;;;;;;;40.13;18.00;;;3.90;99.90;;;;;;5011869;28;20214;-78
2022/01/11 08:05:38;;;;;;;41.10;18.10;;;3.90;99.90;;;;;;5003300;28;20178;-78
2022/01/11 08:08:04;;;;;;;36.37;17.70;;;3.90;99.90;;;;;;5020889;23;20489;-80
2022/01/11 08:10:31;;;;;;;41.37;17.63;;;3.90;99.90;;;;;;5018534;28;20235;-80
2022/01/11 08:13:02;;;;;;;39.60;18.97;;;3.80;99.90;;;;;;5026628;28;20174;-80
2022/01/11 08:15:29;;;;;;;36.70;18.07;;;3.80;99.90;;;;;;5032751;28;20178;-80
2022/01/11 08:17:55;;;;;;;33.17;15.80;;;3.90;99.90;;;;;;5020171;28;20200;-81
2022/01/11 08:20:23;;;;;;;42.60;17.77;;;3.90;99.90;;;;;;5029005;28;20167;-80
2022/01/11 08:22:54;;;;;;;37.10;17.33;;;3.90;99.90;;;;;;5021846;28;20714;-79
2022/01/11 08:25:21;;;;;;;37.83;17.30;;;3.90;99.90;;;;;;5014930;28;20183;-80
2022/01/11 08:27:47;;;;;;;36.27;17.47;;;3.80;99.90;;;;;;5022627;28;20199;-80
2022/01/11 08:30:15;;;;;;;34.70;17.20;;;3.80;99.90;;;;;;5035990;28;20182;-80
2022/01/11 08:32:44;;;;;;;39.57;17.63;;;3.80;99.90;;;;;;5027866;28;20178;-80
2022/01/11 08:35:10;;;;;;;44.97;18.00;;;3.80;99.90;;;;;;5038325;28;20174;-81
2022/01/11 08:37:37;;;;;;;36.77;18.33;;;3.90;99.90;;;;;;5029112;28;20220;-80
2022/01/11 08:40:04;;;;;;;38.87;17.97;;;4.00;99.90;;;;;;5043674;28;20175;-81
2022/01/11 08:42:30;;;;;;;37.17;16.97;;;3.90;99.90;;;;;;5019394;28;20182;-81
2022/01/11 08:44:57;;;;;;;39.13;17.47;;;3.90;99.90;;;;;;5024838;28;20218;-80
2022/01/11 08:47:30;;;;;;;41.13;18.33;;;4.00;99.90;;;;;;5025955;28;20198;-80
2022/01/11 08:50:02;;;;;;;34.33;17.63;;;4.00;99.90;;;;;;5026919;28;20174;-80
2022/01/11 08:52:34;;;;;;;35.27;17.10;;;4.20;99.90;;;;;;5038301;28;20175;-80
2022/01/11 08:55:00;;;;;;;35.27;17.00;;;4.20;99.90;;;;;;5041191;28;20613;-80
2022/01/11 08:57:27;;;;;;;31.07;16.37;;;4.20;99.90;;;;;;5031545;28;20233;-81
2022/01/11 08:59:53;;;;;;;25.83;14.20;;;4.20;99.90;;;;;;5034810;28;20171;-81
2022/01/11 09:02:21;;;;;;;31.13;14.90;;;4.30;99.90;;;;;;5034726;28;20181;-83
2022/01/11 09:04:48;;;;;;;30.33;14.73;;;4.30;99.90;;;;;;5030319;28;20171;-81
2022/01/11 09:07:20;;;;;;;33.10;15.50;;;4.30;99.90;;;;;;5023202;28;20213;-80
2022/01/11 09:09:47;;;;;;;30.73;14.20;;;4.20;99.90;;;;;;5022692;28;20171;-80
2022/01/11 09:12:15;;;;;;;31.93;15.13;;;4.20;99.90;;;;;;5033379;28;20181;-80
2022/01/11 09:14:44;;;;;;;34.73;15.53;;;4.20;99.90;;;;;;5013751;28;20195;-80
2022/01/11 09:17:12;;;;;;;34.03;16.07;;;4.20;99.90;;;;;;5028905;28;20268;-80
2022/01/11 09:19:38;;;;;;;31.03;15.17;;;4.20;99.90;;;;;;5022280;28;20170;-80
2022/01/11 09:22:07;;;;;;;33.33;16.40;;;4.20;99.90;;;;;;5013169;28;20155;-82
2022/01/11 09:24:36;;;;;;;31.23;15.33;;;4.30;99.90;;;;;;5039063;28;20167;-81
2022/01/11 09:27:04;;;;;;;32.63;16.03;;;4.40;99.90;;;;;;5019585;28;20208;-81
2022/01/11 09:29:34;;;;;;;31.40;14.93;;;4.40;99.90;;;;;;5032158;28;20178;-81
2022/01/11 09:32:01;;;;;;;32.30;15.27;;;4.40;99.90;;;;;;5034390;28;20174;-78
2022/01/11 09:34:28;;;;;;;31.37;15.87;;;4.50;99.90;;;;;;5034143;28;20179;-80
2022/01/11 09:36:55;;;;;;;32.30;16.70;;;4.60;99.90;;;;;;5033713;28;20285;-80
2022/01/11 09:39:22;;;;;;;32.60;16.97;;;4.60;99.90;;;;;;5024396;28;20183;-80
2022/01/11 09:41:48;;;;;;;32.80;15.43;;;4.60;99.90;;;;;;5019002;28;20174;-80
2022/01/11 09:44:14;;;;;;;30.17;15.97;;;4.80;99.90;;;;;;5033590;28;20170;-80
2022/01/11 09:46:42;;;;;;;30.43;15.43;;;4.70;99.90;;;;;;5025980;28;20215;-80
2022/01/11 09:49:07;;;;;;;30.73;15.87;;;4.70;99.90;;;;;;5015649;28;20174;-81
2022/01/11 09:51:37;;;;;;;26.63;15.30;;;4.60;99.90;;;;;;5026344;28;20174;-80
2022/01/11 09:54:08;;;;;;;31.33;15.77;;;4.70;99.90;;;;;;5017617;28;20186;-80
2022/01/11 09:56:37;;;;;;;25.43;13.80;;;4.80;99.90;;;;;;5025489;28;20200;-80
2022/01/11 09:59:05;;;;;;;27.40;12.70;;;4.90;99.90;;;;;;5025978;28;20176;-81
2022/01/11 10:02:12;;;;;;;24.57;12.90;;;5.10;99.90;;;;;;5011032;28;20182;-80
2022/01/11 10:04:58;;;;;;;23.47;13.20;;;4.90;99.90;;;;;;4986088;28;20174;-80
2022/01/11 10:07:42;;;;;;;27.50;12.90;;;4.90;99.90;;;;;;5001261;28;20214;-80
2022/01/11 10:10:15;;;;;;;21.33;12.60;;;4.90;99.90;;;;;;5035720;28;20243;-80
2022/01/11 10:12:47;;;;;;;24.67;12.83;;;5.00;99.90;;;;;;5037268;28;20251;-80
2022/01/11 10:15:14;;;;;;;25.53;12.47;;;5.00;99.90;;;;;;5029891;28;20171;-80
2022/01/11 10:17:43;;;;;;;26.70;12.80;;;5.00;99.90;;;;;;5020465;28;20254;-80
2022/01/11 10:20:20;;;;;;;27.47;13.17;;;5.00;99.90;;;;;;5034393;28;20167;-80
2022/01/11 10:23:03;;;;;;;24.93;13.30;;;5.10;99.90;;;;;;5029085;28;20192;-80
2022/01/11 10:25:46;;;;;;;23.10;12.03;;;5.00;99.90;;;;;;5036892;28;20190;-80
2022/01/11 10:28:13;;;;;;;21.03;11.30;;;5.10;99.90;;;;;;5034764;28;20183;-80
2022/01/11 10:30:43;;;;;;;19.33;10.67;;;5.10;99.90;;;;;;5020463;28;20486;-81
2022/01/11 10:33:10;;;;;;;22.23;11.60;;;5.00;99.90;;;;;;5036090;28;20657;-80
2022/01/11 10:35:45;;;;;;;22.10;11.63;;;5.00;99.90;;;;;;5037654;28;20171;-80
2022/01/11 10:38:28;;;;;;;25.37;11.90;;;5.10;99.90;;;;;;5039295;28;20226;-81
2022/01/11 10:40:57;;;;;;;24.37;11.87;;;5.10;99.90;;;;;;5042598;28;20171;-81
2022/01/11 10:43:23;;;;;;;22.63;11.70;;;5.10;99.90;;;;;;5029359;28;20182;-80
2022/01/11 10:45:55;;;;;;;21.70;11.03;;;5.10;99.90;;;;;;5037140;28;20187;-82
2022/01/11 10:48:24;;;;;;;24.63;11.93;;;5.10;99.90;;;;;;5032372;28;21451;-81
2022/01/11 10:50:56;;;;;;;20.37;10.77;;;5.10;99.90;;;;;;5046213;28;20176;-80
2022/01/11 10:53:27;;;;;;;19.63;11.70;;;5.20;99.90;;;;;;5021215;28;20627;-81
2022/01/11 10:55:58;;;;;;;25.37;11.63;;;5.30;99.90;;;;;;5035110;28;20218;-80
2022/01/11 10:58:28;;;;;;;22.20;12.87;;;5.40;99.90;;;;;;5045537;28;20231;-80
2022/01/11 11:00:58;;;;;;;19.13;10.63;;;5.30;99.90;;;;;;5037384;28;20183;-80
2022/01/11 11:03:28;;;;;;;23.57;11.03;;;5.20;99.90;;;;;;5029077;28;20186;-80
2022/01/11 11:06:08;;;;;;;22.00;11.53;;;5.20;99.90;;;;;;5035110;28;20173;-81
2022/01/11 11:08:44;;;;;;;18.37;10.90;;;5.30;99.90;;;;;;5025683;28;20221;-81
2022/01/11 11:11:28;;;;;;;18.03;10.50;;;5.50;99.90;;;;;;5029674;28;20238;-80
2022/01/11 11:14:14;;;;;;;17.37;10.77;;;5.20;99.90;;;;;;5029778;28;20186;-81
2022/01/11 11:16:48;;;;;;;20.47;10.57;;;5.10;99.90;;;;;;5031459;28;20259;-80
2022/01/11 11:19:17;;;;;;;22.63;11.87;;;5.00;99.90;;;;;;5020314;28;20178;-81
2022/01/11 11:21:49;;;;;;;19.23;11.03;;;5.20;99.90;;;;;;5020441;28;20207;-80
2022/01/11 11:24:16;;;;;;;21.60;10.77;;;5.20;99.90;;;;;;5025385;28;20184;-81
2022/01/11 11:26:46;;;;;;;19.17;10.20;;;5.10;99.90;;;;;;5027393;28;20203;-80
2022/01/11 11:29:16;;;;;;;21.37;10.30;;;4.90;99.90;;;;;;5028577;28;20669;-80
2022/01/11 11:31:42;;;;;;;18.47;11.10;;;4.90;99.90;;;;;;5019590;28;20333;-81
2022/01/11 11:34:09;;;;;;;18.53;11.37;;;4.90;99.90;;;;;;5013120;28;20214;-80
2022/01/11 11:36:41;;;;;;;18.83;10.93;;;5.10;99.90;;;;;;5027557;28;20206;-82
2022/01/11 11:39:25;;;;;;;21.40;11.40;;;5.20;99.90;;;;;;5031341;28;20175;-87
2022/01/11 11:41:54;;;;;;;18.63;10.47;;;5.10;99.90;;;;;;5021893;28;20245;-80
2022/01/11 11:44:26;;;;;;;16.53;10.63;;;5.20;99.90;;;;;;5028967;28;20255;-81
2022/01/11 11:47:01;;;;;;;17.73;10.80;;;5.10;99.90;;;;;;5027856;28;20300;-81
2022/01/11 11:49:54;;;;;;;18.93;10.30;;;5.00;99.90;;;;;;5012396;28;20208;-81
2022/01/11 11:52:42;;;;;;;19.90;9.77;;;5.00;99.90;;;;;;5032907;28;20195;-82
2022/01/11 11:55:16;;;;;;;17.40;9.37;;;5.20;99.90;;;;;;5029594;28;20168;-80
2022/01/11 11:57:42;;;;;;;16.70;9.47;;;5.20;99.90;;;;;;5034750;28;20220;-81
2022/01/11 12:00:18;;;;;;;17.03;9.80;;;5.20;99.90;;;;;;5032006;28;20176;-81
2022/01/11 12:02:56;;;;;;;16.60;10.00;;;5.20;99.90;;;;;;5014263;28;20183;-80
2022/01/11 12:05:40;;;;;;;18.17;9.80;;;5.20;99.90;;;;;;5013809;28;20208;-81
2022/01/11 12:08:36;;;;;;;19.20;10.73;;;5.30;99.90;;;;;;5017479;28;20282;-81
2022/01/11 12:11:19;;;;;;;18.67;10.23;;;5.30;99.90;;;;;;5028622;28;20240;-81
2022/01/11 12:13:55;;;;;;;16.10;8.73;;;5.30;99.90;;;;;;5005422;28;20182;-82
2022/01/11 12:16:25;;;;;;;17.37;10.50;;;5.30;99.90;;;;;;5034886;28;20285;-82
2022/01/11 12:18:56;;;;;;;15.57;9.43;;;5.40;99.90;;;;;;5008867;28;20203;-82
2022/01/11 12:21:27;;;;;;;17.07;9.47;;;5.50;99.90;;;;;;5024542;28;20743;-80
2022/01/11 12:24:00;;;;;;;17.03;9.53;;;5.50;99.90;;;;;;5035040;28;20182;-82
2022/01/11 12:26:28;;;;;;;15.67;9.20;;;5.40;99.90;;;;;;5030771;28;20207;-81
2022/01/11 12:29:03;;;;;;;20.97;9.13;;;5.40;99.90;;;;;;5019672;28;20578;-81
2022/01/11 12:31:34;;;;;;;17.80;9.23;;;5.40;99.90;;;;;;5012600;28;20265;-81
2022/01/11 12:34:00;;;;;;;17.97;9.00;;;5.30;99.90;;;;;;5025717;28;20209;-80
2022/01/11 12:36:54;;;;;;;18.60;9.00;;;5.30;99.90;;;;;;5014604;28;20199;-81
2022/01/11 12:39:23;;;;;;;16.83;9.40;;;5.40;99.90;;;;;;5036377;28;20538;-80
2022/01/11 12:41:51;;;;;;;17.83;9.10;;;5.40;99.90;;;;;;5035335;28;20200;-82
2022/01/11 12:44:21;;;;;;;15.90;9.13;;;5.40;99.90;;;;;;5010646;28;20176;-81
2022/01/11 12:46:54;;;;;;;16.27;8.30;;;5.50;99.90;;;;;;5032773;28;20207;-81
2022/01/11 12:49:25;;;;;;;15.67;8.70;;;5.60;99.90;;;;;;5023038;28;20176;-81
2022/01/11 12:51:53;;;;;;;18.30;9.10;;;5.50;99.90;;;;;;5020655;28;20647;-82
2022/01/11 12:54:29;;;;;;;17.27;8.93;;;5.40;99.90;;;;;;5011037;28;20244;-82